en  de  es  pl  it  ru

Highscore

Steeley

POI Feature Latitude Longitude Date
Fabrication2Arts Centre53.8-1.538832018-06-07 09:45:19
Indian Ocean TakeawayRestaurant53.5489-2.523952018-06-04 11:19:52
Marks & SpencerDepartment Store54.5547-1.275422018-05-01 10:10:12
USCClothes54.5546-1.273912018-05-01 10:10:11
Robin Hood InnPub53.5937-2.441242018-04-26 22:40:32
Lord RaglanPub53.5938-2.441712018-04-26 22:40:32
Co-opSupermarket53.3753-1.429392018-04-23 09:39:39
X-RecordsMusic53.5813-2.428492018-04-21 19:09:22
Charles LewisHairdresser53.8069-1.583792018-04-04 10:15:37
B&C Car PartsCar Parts53.8066-1.582912018-04-04 10:15:37
Venezia PizzaFast Food53.8067-1.583192018-04-04 10:15:36
PJ'sBar53.3872-2.592692018-03-29 09:46:30
King's Hall & Winter GardenTheatre53.9242-1.82152018-03-04 14:23:42
Pasta RomagnaCafe53.7977-1.543372018-02-10 10:05:56
Co-opSupermarket53.4104-2.181472018-02-03 09:40:15
Foster'sHairdresser53.5714-2.421022018-02-02 16:00:19
The Highgrove Guest HouseGuest House53.5728-2.422072018-02-02 16:00:19
The Vape BoxYes53.5804-2.405952018-02-01 20:25:25
Speedy GonzalezFast Food53.5804-2.405732018-02-01 20:25:25
Gatleys PharmacyPharmacy53.5803-2.404952018-02-01 20:25:25
Pound PlusNewsagent53.5803-2.405052018-02-01 20:25:25
PowercutHairdresser53.5804-2.405132018-02-01 20:25:25
Phonetechplus+Mobile Phone53.5804-2.40522018-02-01 20:25:25
McColl'sConvenience53.5804-2.405472018-02-01 20:25:25
Dutson BakeryBakery53.5804-2.405582018-02-01 20:25:25
Greenhalgh'sBakery53.5804-2.405652018-02-01 20:25:25
Revival HairHairdresser53.5804-2.405812018-02-01 20:25:25
Beauty RoomsBeauty53.5804-2.405882018-02-01 20:25:25
Garibaldis PizzasFast Food53.5807-2.405722018-02-01 20:25:24
Lancashire FloristryFlorist53.5806-2.406312018-02-01 20:25:24
Curry KingFast Food53.5806-2.406222018-02-01 20:25:24
YummiesFast Food53.5806-2.406132018-02-01 20:25:24
CoralBookmaker53.5804-2.406152018-02-01 20:25:24
Bolton Dementia SupportCharity53.5807-2.405642018-02-01 20:25:24
Chinese ChefFast Food53.5807-2.405572018-02-01 20:25:24
Wise BuysVariety Store53.5807-2.405392018-02-01 20:25:24
PremierConvenience53.5807-2.405182018-02-01 20:25:24
Mel's BarbersHairdresser53.5807-2.405062018-02-01 20:25:24
The Avenue BridalYes53.5807-2.404612018-02-01 20:25:24
Your Faithful FriendYes53.5807-2.404762018-02-01 20:25:24
MtPetShopPet53.5807-2.404872018-02-01 20:25:24
Bolton Carpet Services LtdCarpet53.5807-2.406012018-02-01 20:25:23
The Black HorsePub53.5805-2.401472018-02-01 16:17:27
372 DentalDentist53.5805-2.401632018-02-01 16:17:27
best-oneConvenience53.5806-2.384672018-01-28 12:48:48
Breightmet Post OfficePost Office53.5807-2.385312018-01-28 12:48:47
Maxwells PharmacyPharmacy53.5806-2.384912018-01-28 12:48:47
Greenwood JamesEstate Agent53.5805-2.384372018-01-28 12:48:47
Tornado Food HouseFast Food53.5805-2.384432018-01-28 12:48:47
Greenhalgh OpticiansOptician53.5806-2.384772018-01-28 12:48:47
New TrendBeauty53.5806-2.384842018-01-28 12:48:47
Prestige Pet ProductsPet53.5806-2.384972018-01-28 12:48:47
Allen's BakeryBakery53.5806-2.385042018-01-28 12:48:47
Bitza PizzaFast Food53.5806-2.385112018-01-28 12:48:47
Power Up CentreComputer53.5806-2.385172018-01-28 12:48:47
Bloomers Party ShopGift53.5806-2.385252018-01-28 12:48:47
FreshMistYes53.5807-2.385382018-01-28 12:48:47
Bolton Hospice ShopCharity53.5807-2.385442018-01-28 12:48:47
Allen's CafeCafe53.5807-2.385512018-01-28 12:48:47
Latimer Lee LLPLawyer53.5804-2.384012018-01-28 12:48:47
Duke of WellingtonPub53.5639-2.502892018-01-12 23:01:31
Gateway Games & PhonesDepartment Store53.444-1.950822018-01-11 11:41:47
Paper Moon Day NurseryKindergarten52.9515-1.181242018-01-10 09:56:02
Wynsors World of ShoesShoes53.5932-2.312042018-01-08 19:46:12
BurtonClothes53.7459-1.644522018-01-05 15:58:09
Dorothy PerkinsClothes53.7459-1.644362018-01-05 15:58:09
EvansClothes53.7459-1.644472018-01-05 15:58:09
WallisClothes53.7459-1.644412018-01-05 15:58:09
Tesco ExpressConvenience53.3369-2.215382018-01-03 11:08:57
Ellis Brigham Mountain SportsOutdoor53.481-2.248132017-12-03 21:32:24
Wakefield Dog Training CentreAnimal Training53.6536-1.44982017-11-28 11:17:09
Rowlands PharmacyPharmacy53.5768-2.431322017-11-24 11:26:18
McColl'sConvenience53.5924-2.317782017-11-23 21:57:26
fishmotors.co.ukCar53.5798-2.413122017-11-18 13:12:26
Powerleague BoltonPitch53.5746-2.397042017-11-18 13:12:25
Greenhalgh'sBakery53.5812-2.38272017-11-18 09:32:43
The Pack Horse53.5779-2.427172017-11-17 18:07:42
The Blind TigerBar53.5776-2.426652017-11-17 18:07:42
Shaws AmusementsAmusement Arcade53.5797-2.430722017-11-17 16:55:20
BridgfordsEstate Agent53.5791-2.429922017-11-17 16:55:19
CranshawsButcher53.5775-2.42972017-11-17 15:55:56
The Old Three CrownsPub53.5798-2.427562017-11-17 15:55:56
Holland & BarrettYes53.5771-2.429522017-11-17 15:55:56
GameVideo Games53.5777-2.429772017-11-17 15:55:56
Greenhalgh'sBakery53.5776-2.429722017-11-17 15:55:56
Cancer Research UKCharity53.5776-2.429732017-11-17 15:55:56
PoundBakeryBakery53.5774-2.429662017-11-17 15:55:56
LadbrokesBookmaker53.5768-2.42942017-11-17 15:55:56
Market Place Car ParkParking53.5817-2.42932017-11-17 15:06:15
Great Lever Post OfficePost Office53.5601-2.42872017-08-08 09:37:43
SayersBakery53.5605-2.428272017-08-08 09:37:40
Lloyds PharmacyPharmacy53.5605-2.428282017-08-08 09:37:40
William HillBookmaker53.5606-2.428282017-08-08 09:37:40
Fraser'sButcher53.5602-2.428712017-08-08 09:37:40
Regency WinesWine53.5604-2.428272017-08-08 09:37:40
best-oneConvenience53.5575-2.449682017-08-01 12:10:09
Armstrongs BakersBakery53.5578-2.449822017-08-01 12:10:09
The Morris DancersPub53.5585-2.451012017-08-01 12:10:09
Salisbury Amateur Boxing ClubSports Centre53.4129-2.970262017-08-01 09:36:38
Tracks Hair DesignHairdresser53.7949-1.543572017-07-30 09:23:55

Steeley 100-200